sensor_id;sensor_type;location;lat;lon;timestamp;P1;durP1;ratioP1;P2;durP2;ratioP2
18455;SDS011;9357;49.900;8.208;2022-09-03T00:00:16;1.40;;;1.30;;
18455;SDS011;9357;49.900;8.208;2022-09-03T00:01:56;1.77;;;1.40;;
18455;SDS011;9357;49.900;8.208;2022-09-03T00:03:36;2.47;;;1.50;;
18455;SDS011;9357;49.900;8.208;2022-09-03T00:05:16;1.40;;;1.30;;
18455;SDS011;9357;49.900;8.208;2022-09-03T00:06:54;4.10;;;1.60;;
18455;SDS011;9357;49.900;8.208;2022-09-03T00:08:32;3.50;;;1.50;;
18455;SDS011;9357;49.900;8.208;2022-09-03T00:10:11;2.33;;;1.30;;
18455;SDS011;9357;49.900;8.208;2022-09-03T00:11:49;1.40;;;1.30;;
18455;SDS011;9357;49.900;8.208;2022-09-03T00:13:28;1.50;;;1.40;;
18455;SDS011;9357;49.900;8.208;2022-09-03T00:15:05;2.37;;;1.50;;
18455;SDS011;9357;49.900;8.208;2022-09-03T00:16:43;1.10;;;1.10;;
18455;SDS011;9357;49.900;8.208;2022-09-03T00:18:21;1.30;;;1.20;;
18455;SDS011;9357;49.900;8.208;2022-09-03T00:19:57;3.60;;;1.33;;
18455;SDS011;9357;49.900;8.208;2022-09-03T00:21:34;3.27;;;1.50;;
18455;SDS011;9357;49.900;8.208;2022-09-03T00:23:10;2.07;;;1.20;;
18455;SDS011;9357;49.900;8.208;2022-09-03T00:24:47;1.87;;;1.40;;
18455;SDS011;9357;49.900;8.208;2022-09-03T00:26:21;3.73;;;1.50;;
18455;SDS011;9357;49.900;8.208;2022-09-03T00:27:58;2.17;;;1.30;;
18455;SDS011;9357;49.900;8.208;2022-09-03T00:29:34;1.90;;;1.60;;
18455;SDS011;9357;49.900;8.208;2022-09-03T00:31:12;2.03;;;1.50;;
18455;SDS011;9357;49.900;8.208;2022-09-03T00:32:51;3.07;;;1.50;;
18455;SDS011;9357;49.900;8.208;2022-09-03T00:34:28;2.50;;;1.43;;
18455;SDS011;9357;49.900;8.208;2022-09-03T00:36:07;3.70;;;1.40;;
18455;SDS011;9357;49.900;8.208;2022-09-03T00:37:45;1.30;;;1.20;;
18455;SDS011;9357;49.900;8.208;2022-09-03T00:39:21;1.90;;;1.47;;
18455;SDS011;9357;49.900;8.208;2022-09-03T00:41:01;1.13;;;1.10;;
18455;SDS011;9357;49.900;8.208;2022-09-03T00:42:41;2.90;;;1.33;;
18455;SDS011;9357;49.900;8.208;2022-09-03T00:44:28;1.50;;;1.40;;
18455;SDS011;9357;49.900;8.208;2022-09-03T00:46:21;1.77;;;1.30;;
18455;SDS011;9357;49.900;8.208;2022-09-03T00:48:05;1.80;;;1.70;;
18455;SDS011;9357;49.900;8.208;2022-09-03T00:49:50;1.63;;;1.40;;
18455;SDS011;9357;49.900;8.208;2022-09-03T00:51:34;1.53;;;1.43;;
18455;SDS011;9357;49.900;8.208;2022-09-03T00:53:16;1.90;;;1.47;;
18455;SDS011;9357;49.900;8.208;2022-09-03T00:54:58;1.40;;;1.20;;
18455;SDS011;9357;49.900;8.208;2022-09-03T00:56:38;3.10;;;1.53;;
18455;SDS011;9357;49.900;8.208;2022-09-03T00:58:24;2.17;;;1.43;;
18455;SDS011;9357;49.900;8.208;2022-09-03T01:00:16;1.77;;;1.60;;
18455;SDS011;9357;49.900;8.208;2022-09-03T01:01:53;1.40;;;1.30;;
18455;SDS011;9357;49.900;8.208;2022-09-03T01:03:34;1.50;;;1.40;;
18455;SDS011;9357;49.900;8.208;2022-09-03T01:05:25;1.40;;;1.30;;
18455;SDS011;9357;49.900;8.208;2022-09-03T01:07:16;1.83;;;1.30;;
18455;SDS011;9357;49.900;8.208;2022-09-03T01:08:59;1.23;;;1.17;;
18455;SDS011;9357;49.900;8.208;2022-09-03T01:10:44;2.13;;;1.37;;
18455;SDS011;9357;49.900;8.208;2022-09-03T01:12:27;1.47;;;1.37;;
18455;SDS011;9357;49.900;8.208;2022-09-03T01:14:11;1.57;;;1.40;;
18455;SDS011;9357;49.900;8.208;2022-09-03T01:15:51;1.83;;;1.50;;
18455;SDS011;9357;49.900;8.208;2022-09-03T01:17:41;1.60;;;1.50;;
18455;SDS011;9357;49.900;8.208;2022-09-03T01:19:29;1.60;;;1.50;;
18455;SDS011;9357;49.900;8.208;2022-09-03T01:21:24;3.83;;;1.30;;
18455;SDS011;9357;49.900;8.208;2022-09-03T01:23:35;2.43;;;1.40;;
18455;SDS011;9357;49.900;8.208;2022-09-03T01:25:27;1.53;;;1.43;;
18455;SDS011;9357;49.900;8.208;2022-09-03T01:27:15;1.83;;;1.40;;
18455;SDS011;9357;49.900;8.208;2022-09-03T01:29:02;1.60;;;1.40;;
18455;SDS011;9357;49.900;8.208;2022-09-03T01:30:42;1.80;;;1.30;;
18455;SDS011;9357;49.900;8.208;2022-09-03T01:32:21;1.40;;;1.30;;
18455;SDS011;9357;49.900;8.208;2022-09-03T01:34:01;1.30;;;1.13;;
18455;SDS011;9357;49.900;8.208;2022-09-03T01:35:43;1.70;;;1.30;;
18455;SDS011;9357;49.900;8.208;2022-09-03T01:37:20;1.40;;;1.30;;
18455;SDS011;9357;49.900;8.208;2022-09-03T01:39:03;3.63;;;1.47;;
18455;SDS011;9357;49.900;8.208;2022-09-03T01:40:41;1.50;;;1.40;;
18455;SDS011;9357;49.900;8.208;2022-09-03T01:42:23;1.43;;;1.30;;
18455;SDS011;9357;49.900;8.208;2022-09-03T01:44:07;2.87;;;1.37;;
18455;SDS011;9357;49.900;8.208;2022-09-03T01:45:50;2.77;;;1.40;;
18455;SDS011;9357;49.900;8.208;2022-09-03T01:47:33;1.60;;;1.20;;
18455;SDS011;9357;49.900;8.208;2022-09-03T01:49:22;2.20;;;1.30;;
18455;SDS011;9357;49.900;8.208;2022-09-03T01:51:02;2.17;;;1.23;;
18455;SDS011;9357;49.900;8.208;2022-09-03T01:52:42;1.87;;;1.20;;
18455;SDS011;9357;49.900;8.208;2022-09-03T01:54:25;1.40;;;1.30;;
18455;SDS011;9357;49.900;8.208;2022-09-03T01:56:16;1.77;;;1.40;;
18455;SDS011;9357;49.900;8.208;2022-09-03T01:57:57;1.33;;;1.23;;
18455;SDS011;9357;49.900;8.208;2022-09-03T01:59:36;2.37;;;1.50;;
18455;SDS011;9357;49.900;8.208;2022-09-03T02:01:13;1.30;;;1.20;;
18455;SDS011;9357;49.900;8.208;2022-09-03T02:02:53;3.97;;;1.50;;
18455;SDS011;9357;49.900;8.208;2022-09-03T02:04:26;1.70;;;1.27;;
18455;SDS011;9357;49.900;8.208;2022-09-03T02:05:58;1.50;;;1.20;;
18455;SDS011;9357;49.900;8.208;2022-09-03T02:07:32;1.63;;;1.40;;
18455;SDS011;9357;49.900;8.208;2022-09-03T02:09:07;1.77;;;1.40;;
18455;SDS011;9357;49.900;8.208;2022-09-03T02:10:40;1.53;;;1.10;;
18455;SDS011;9357;49.900;8.208;2022-09-03T02:12:16;2.53;;;1.40;;
18455;SDS011;9357;49.900;8.208;2022-09-03T02:13:51;2.10;;;1.40;;
18455;SDS011;9357;49.900;8.208;2022-09-03T02:15:28;1.83;;;1.40;;
18455;SDS011;9357;49.900;8.208;2022-09-03T02:17:02;1.47;;;1.37;;
18455;SDS011;9357;49.900;8.208;2022-09-03T02:18:37;1.60;;;1.50;;
18455;SDS011;9357;49.900;8.208;2022-09-03T02:20:15;1.87;;;1.30;;
18455;SDS011;9357;49.900;8.208;2022-09-03T02:21:51;2.87;;;1.50;;
18455;SDS011;9357;49.900;8.208;2022-09-03T02:23:26;1.40;;;1.30;;
18455;SDS011;9357;49.900;8.208;2022-09-03T02:25:00;1.50;;;1.40;;
18455;SDS011;9357;49.900;8.208;2022-09-03T02:26:33;1.20;;;1.20;;
18455;SDS011;9357;49.900;8.208;2022-09-03T02:28:06;2.07;;;1.20;;
18455;SDS011;9357;49.900;8.208;2022-09-03T02:29:57;1.97;;;1.40;;
18455;SDS011;9357;49.900;8.208;2022-09-03T02:31:32;1.40;;;1.30;;
18455;SDS011;9357;49.900;8.208;2022-09-03T02:33:05;2.77;;;1.43;;
18455;SDS011;9357;49.900;8.208;2022-09-03T02:34:38;1.83;;;1.50;;
18455;SDS011;9357;49.900;8.208;2022-09-03T02:36:11;1.47;;;1.40;;
18455;SDS011;9357;49.900;8.208;2022-09-03T02:37:46;1.50;;;1.33;;
18455;SDS011;9357;49.900;8.208;2022-09-03T02:39:17;1.13;;;1.13;;
18455;SDS011;9357;49.900;8.208;2022-09-03T02:40:50;1.43;;;1.33;;
18455;SDS011;9357;49.900;8.208;2022-09-03T02:42:24;1.30;;;1.27;;
18455;SDS011;9357;49.900;8.208;2022-09-03T02:43:57;2.07;;;1.40;;
18455;SDS011;9357;49.900;8.208;2022-09-03T02:45:33;2.00;;;1.30;;
18455;SDS011;9357;49.900;8.208;2022-09-03T02:47:10;1.50;;;1.40;;
18455;SDS011;9357;49.900;8.208;2022-09-03T02:48:43;1.20;;;1.20;;
18455;SDS011;9357;49.900;8.208;2022-09-03T02:50:16;1.40;;;1.30;;
18455;SDS011;9357;49.900;8.208;2022-09-03T02:51:48;1.27;;;1.20;;
18455;SDS011;9357;49.900;8.208;2022-09-03T02:53:21;1.30;;;1.20;;
18455;SDS011;9357;49.900;8.208;2022-09-03T02:54:53;1.70;;;1.40;;
18455;SDS011;9357;49.900;8.208;2022-09-03T02:56:25;1.63;;;1.30;;
18455;SDS011;9357;49.900;8.208;2022-09-03T02:57:58;1.70;;;1.30;;
18455;SDS011;9357;49.900;8.208;2022-09-03T02:59:30;2.17;;;1.40;;
18455;SDS011;9357;49.900;8.208;2022-09-03T03:01:03;3.40;;;1.23;;
18455;SDS011;9357;49.900;8.208;2022-09-03T03:02:38;1.40;;;1.30;;
18455;SDS011;9357;49.900;8.208;2022-09-03T03:04:12;1.30;;;1.30;;
18455;SDS011;9357;49.900;8.208;2022-09-03T03:05:45;4.00;;;1.67;;
18455;SDS011;9357;49.900;8.208;2022-09-03T03:07:21;1.33;;;1.23;;
18455;SDS011;9357;49.900;8.208;2022-09-03T03:08:53;2.50;;;1.30;;
18455;SDS011;9357;49.900;8.208;2022-09-03T03:10:27;1.37;;;1.27;;
18455;SDS011;9357;49.900;8.208;2022-09-03T03:11:59;4.50;;;1.50;;
18455;SDS011;9357;49.900;8.208;2022-09-03T03:13:32;1.50;;;1.40;;
18455;SDS011;9357;49.900;8.208;2022-09-03T03:15:05;2.07;;;1.30;;
18455;SDS011;9357;49.900;8.208;2022-09-03T03:16:38;2.13;;;1.20;;
18455;SDS011;9357;49.900;8.208;2022-09-03T03:18:11;1.90;;;1.23;;
18455;SDS011;9357;49.900;8.208;2022-09-03T03:19:44;1.50;;;1.40;;
18455;SDS011;9357;49.900;8.208;2022-09-03T03:21:17;1.13;;;1.10;;
18455;SDS011;9357;49.900;8.208;2022-09-03T03:22:49;1.63;;;1.37;;
18455;SDS011;9357;49.900;8.208;2022-09-03T03:24:22;1.90;;;1.40;;
18455;SDS011;9357;49.900;8.208;2022-09-03T03:25:59;2.10;;;1.30;;
18455;SDS011;9357;49.900;8.208;2022-09-03T03:27:32;2.60;;;1.50;;
18455;SDS011;9357;49.900;8.208;2022-09-03T03:29:07;1.50;;;1.40;;
18455;SDS011;9357;49.900;8.208;2022-09-03T03:30:47;2.50;;;1.40;;
18455;SDS011;9357;49.900;8.208;2022-09-03T03:32:19;2.10;;;1.50;;
18455;SDS011;9357;49.900;8.208;2022-09-03T03:33:54;2.20;;;1.40;;
18455;SDS011;9357;49.900;8.208;2022-09-03T03:35:28;2.23;;;1.50;;
18455;SDS011;9357;49.900;8.208;2022-09-03T03:37:00;2.10;;;1.37;;
18455;SDS011;9357;49.900;8.208;2022-09-03T03:38:33;3.53;;;1.47;;
18455;SDS011;9357;49.900;8.208;2022-09-03T03:40:05;1.30;;;1.20;;
18455;SDS011;9357;49.900;8.208;2022-09-03T03:41:39;1.50;;;1.40;;
18455;SDS011;9357;49.900;8.208;2022-09-03T03:43:11;1.50;;;1.40;;
18455;SDS011;9357;49.900;8.208;2022-09-03T03:44:43;2.63;;;1.40;;
18455;SDS011;9357;49.900;8.208;2022-09-03T03:46:16;2.20;;;1.30;;
18455;SDS011;9357;49.900;8.208;2022-09-03T03:47:48;2.60;;;1.40;;
18455;SDS011;9357;49.900;8.208;2022-09-03T03:49:22;2.53;;;1.40;;
18455;SDS011;9357;49.900;8.208;2022-09-03T03:50:58;1.87;;;1.30;;
18455;SDS011;9357;49.900;8.208;2022-09-03T03:52:32;2.83;;;1.33;;
18455;SDS011;9357;49.900;8.208;2022-09-03T03:54:05;2.10;;;1.60;;
18455;SDS011;9357;49.900;8.208;2022-09-03T03:55:38;1.50;;;1.40;;
18455;SDS011;9357;49.900;8.208;2022-09-03T03:57:12;1.90;;;1.30;;
18455;SDS011;9357;49.900;8.208;2022-09-03T03:58:44;1.73;;;1.30;;
18455;SDS011;9357;49.900;8.208;2022-09-03T04:00:18;2.13;;;1.40;;
18455;SDS011;9357;49.900;8.208;2022-09-03T04:01:54;1.47;;;1.37;;
18455;SDS011;9357;49.900;8.208;2022-09-03T04:03:27;1.53;;;1.40;;
18455;SDS011;9357;49.900;8.208;2022-09-03T04:05:00;1.90;;;1.40;;
18455;SDS011;9357;49.900;8.208;2022-09-03T04:06:33;1.30;;;1.20;;
18455;SDS011;9357;49.900;8.208;2022-09-03T04:08:06;2.30;;;1.30;;
18455;SDS011;9357;49.900;8.208;2022-09-03T04:09:39;1.60;;;1.30;;
18455;SDS011;9357;49.900;8.208;2022-09-03T04:11:12;1.63;;;1.40;;
18455;SDS011;9357;49.900;8.208;2022-09-03T04:12:46;1.30;;;1.20;;
18455;SDS011;9357;49.900;8.208;2022-09-03T04:14:18;1.40;;;1.30;;
18455;SDS011;9357;49.900;8.208;2022-09-03T04:15:58;1.40;;;1.13;;
18455;SDS011;9357;49.900;8.208;2022-09-03T04:17:31;1.47;;;1.37;;
18455;SDS011;9357;49.900;8.208;2022-09-03T04:19:04;2.37;;;1.27;;
18455;SDS011;9357;49.900;8.208;2022-09-03T04:20:39;1.50;;;1.40;;
18455;SDS011;9357;49.900;8.208;2022-09-03T04:22:11;1.70;;;1.33;;
18455;SDS011;9357;49.900;8.208;2022-09-03T04:23:46;1.13;;;1.13;;
18455;SDS011;9357;49.900;8.208;2022-09-03T04:25:20;3.23;;;1.50;;
18455;SDS011;9357;49.900;8.208;2022-09-03T04:26:53;1.30;;;1.30;;
18455;SDS011;9357;49.900;8.208;2022-09-03T04:28:26;3.37;;;1.30;;
18455;SDS011;9357;49.900;8.208;2022-09-03T04:29:58;1.90;;;1.57;;
18455;SDS011;9357;49.900;8.208;2022-09-03T04:31:32;1.63;;;1.50;;
18455;SDS011;9357;49.900;8.208;2022-09-03T04:33:06;1.37;;;1.30;;
18455;SDS011;9357;49.900;8.208;2022-09-03T04:34:46;1.67;;;1.57;;
18455;SDS011;9357;49.900;8.208;2022-09-03T04:36:21;1.73;;;1.40;;
18455;SDS011;9357;49.900;8.208;2022-09-03T04:37:55;2.17;;;1.50;;
18455;SDS011;9357;49.900;8.208;2022-09-03T04:39:29;2.20;;;1.47;;
18455;SDS011;9357;49.900;8.208;2022-09-03T04:41:02;1.50;;;1.30;;
18455;SDS011;9357;49.900;8.208;2022-09-03T04:42:35;2.20;;;1.70;;
18455;SDS011;9357;49.900;8.208;2022-09-03T04:44:07;1.93;;;1.30;;
18455;SDS011;9357;49.900;8.208;2022-09-03T04:45:40;1.50;;;1.40;;
18455;SDS011;9357;49.900;8.208;2022-09-03T04:47:12;1.53;;;1.43;;
18455;SDS011;9357;49.900;8.208;2022-09-03T04:48:46;1.33;;;1.27;;
18455;SDS011;9357;49.900;8.208;2022-09-03T04:50:21;2.03;;;1.60;;
18455;SDS011;9357;49.900;8.208;2022-09-03T04:51:55;1.90;;;1.50;;
18455;SDS011;9357;49.900;8.208;2022-09-03T04:53:27;1.90;;;1.60;;
18455;SDS011;9357;49.900;8.208;2022-09-03T04:54:59;1.67;;;1.30;;
18455;SDS011;9357;49.900;8.208;2022-09-03T04:56:33;1.93;;;1.50;;
18455;SDS011;9357;49.900;8.208;2022-09-03T04:58:06;1.40;;;1.30;;
18455;SDS011;9357;49.900;8.208;2022-09-03T04:59:39;1.30;;;1.30;;
18455;SDS011;9357;49.900;8.208;2022-09-03T05:01:14;1.60;;;1.50;;
18455;SDS011;9357;49.900;8.208;2022-09-03T05:02:49;1.50;;;1.40;;
18455;SDS011;9357;49.900;8.208;2022-09-03T05:04:22;1.70;;;1.30;;
18455;SDS011;9357;49.900;8.208;2022-09-03T05:05:54;2.17;;;1.40;;
18455;SDS011;9357;49.900;8.208;2022-09-03T05:07:29;2.67;;;1.50;;
18455;SDS011;9357;49.900;8.208;2022-09-03T05:09:08;1.50;;;1.40;;
18455;SDS011;9357;49.900;8.208;2022-09-03T05:10:41;1.50;;;1.20;;
18455;SDS011;9357;49.900;8.208;2022-09-03T05:12:14;2.87;;;1.60;;
18455;SDS011;9357;49.900;8.208;2022-09-03T05:13:48;1.60;;;1.47;;
18455;SDS011;9357;49.900;8.208;2022-09-03T05:15:21;1.40;;;1.30;;
18455;SDS011;9357;49.900;8.208;2022-09-03T05:16:54;1.77;;;1.60;;
18455;SDS011;9357;49.900;8.208;2022-09-03T05:18:27;2.43;;;1.40;;
18455;SDS011;9357;49.900;8.208;2022-09-03T05:20:00;2.10;;;1.50;;
18455;SDS011;9357;49.900;8.208;2022-09-03T05:21:34;1.80;;;1.30;;
18455;SDS011;9357;49.900;8.208;2022-09-03T05:23:08;1.50;;;1.40;;
18455;SDS011;9357;49.900;8.208;2022-09-03T05:24:41;1.47;;;1.33;;
18455;SDS011;9357;49.900;8.208;2022-09-03T05:26:15;1.43;;;1.30;;
18455;SDS011;9357;49.900;8.208;2022-09-03T05:27:49;1.63;;;1.30;;
18455;SDS011;9357;49.900;8.208;2022-09-03T05:29:25;1.60;;;1.50;;
18455;SDS011;9357;49.900;8.208;2022-09-03T05:30:59;1.87;;;1.60;;
18455;SDS011;9357;49.900;8.208;2022-09-03T05:32:31;1.43;;;1.33;;
18455;SDS011;9357;49.900;8.208;2022-09-03T05:34:04;1.70;;;1.60;;
18455;SDS011;9357;49.900;8.208;2022-09-03T05:35:38;2.40;;;1.63;;
18455;SDS011;9357;49.900;8.208;2022-09-03T05:37:11;2.40;;;1.70;;
18455;SDS011;9357;49.900;8.208;2022-09-03T05:38:46;1.60;;;1.40;;
18455;SDS011;9357;49.900;8.208;2022-09-03T05:40:19;1.40;;;1.40;;
18455;SDS011;9357;49.900;8.208;2022-09-03T05:41:51;1.60;;;1.50;;
18455;SDS011;9357;49.900;8.208;2022-09-03T05:43:24;1.57;;;1.47;;
18455;SDS011;9357;49.900;8.208;2022-09-03T05:44:57;1.87;;;1.70;;
18455;SDS011;9357;49.900;8.208;2022-09-03T05:46:31;3.97;;;1.70;;
18455;SDS011;9357;49.900;8.208;2022-09-03T05:48:04;1.67;;;1.57;;
18455;SDS011;9357;49.900;8.208;2022-09-03T05:49:36;3.07;;;1.60;;
18455;SDS011;9357;49.900;8.208;2022-09-03T05:51:10;3.50;;;1.60;;
18455;SDS011;9357;49.900;8.208;2022-09-03T05:52:46;1.70;;;1.60;;
18455;SDS011;9357;49.900;8.208;2022-09-03T05:54:20;1.30;;;1.27;;
18455;SDS011;9357;49.900;8.208;2022-09-03T05:55:54;2.03;;;1.60;;
18455;SDS011;9357;49.900;8.208;2022-09-03T05:57:26;1.83;;;1.50;;
18455;SDS011;9357;49.900;8.208;2022-09-03T05:59:00;1.70;;;1.60;;
18455;SDS011;9357;49.900;8.208;2022-09-03T06:00:35;1.43;;;1.33;;
18455;SDS011;9357;49.900;8.208;2022-09-03T06:02:08;2.07;;;1.50;;
18455;SDS011;9357;49.900;8.208;2022-09-03T06:03:42;1.50;;;1.40;;
18455;SDS011;9357;49.900;8.208;2022-09-03T06:05:17;1.60;;;1.50;;
18455;SDS011;9357;49.900;8.208;2022-09-03T06:06:50;4.00;;;1.53;;
18455;SDS011;9357;49.900;8.208;2022-09-03T06:08:24;1.63;;;1.53;;
18455;SDS011;9357;49.900;8.208;2022-09-03T06:09:58;1.70;;;1.60;;
18455;SDS011;9357;49.900;8.208;2022-09-03T06:11:31;2.47;;;1.77;;
18455;SDS011;9357;49.900;8.208;2022-09-03T06:13:05;1.80;;;1.70;;
18455;SDS011;9357;49.900;8.208;2022-09-03T06:14:38;1.90;;;1.80;;
18455;SDS011;9357;49.900;8.208;2022-09-03T06:16:10;1.77;;;1.70;;
18455;SDS011;9357;49.900;8.208;2022-09-03T06:17:43;1.70;;;1.60;;
18455;SDS011;9357;49.900;8.208;2022-09-03T06:19:16;2.63;;;1.90;;
18455;SDS011;9357;49.900;8.208;2022-09-03T06:20:52;2.57;;;2.00;;
18455;SDS011;9357;49.900;8.208;2022-09-03T06:22:26;1.97;;;1.83;;
18455;SDS011;9357;49.900;8.208;2022-09-03T06:24:00;3.47;;;1.80;;
18455;SDS011;9357;49.900;8.208;2022-09-03T06:25:35;2.07;;;1.80;;
18455;SDS011;9357;49.900;8.208;2022-09-03T06:27:08;2.03;;;1.70;;
18455;SDS011;9357;49.900;8.208;2022-09-03T06:28:42;1.87;;;1.77;;
18455;SDS011;9357;49.900;8.208;2022-09-03T06:30:16;1.80;;;1.70;;
18455;SDS011;9357;49.900;8.208;2022-09-03T06:31:48;3.53;;;2.00;;
18455;SDS011;9357;49.900;8.208;2022-09-03T06:33:21;1.90;;;1.80;;
18455;SDS011;9357;49.900;8.208;2022-09-03T06:34:55;1.83;;;1.70;;
18455;SDS011;9357;49.900;8.208;2022-09-03T06:36:28;3.63;;;1.70;;
18455;SDS011;9357;49.900;8.208;2022-09-03T06:38:01;1.70;;;1.60;;
18455;SDS011;9357;49.900;8.208;2022-09-03T06:39:34;3.87;;;1.70;;
18455;SDS011;9357;49.900;8.208;2022-09-03T06:41:08;2.83;;;1.50;;
18455;SDS011;9357;49.900;8.208;2022-09-03T06:42:42;3.30;;;1.67;;
18455;SDS011;9357;49.900;8.208;2022-09-03T06:44:16;2.20;;;1.87;;
18455;SDS011;9357;49.900;8.208;2022-09-03T06:45:52;2.10;;;1.90;;
18455;SDS011;9357;49.900;8.208;2022-09-03T06:47:25;4.67;;;2.00;;
18455;SDS011;9357;49.900;8.208;2022-09-03T06:48:59;2.30;;;2.10;;
18455;SDS011;9357;49.900;8.208;2022-09-03T06:50:32;3.20;;;2.00;;
18455;SDS011;9357;49.900;8.208;2022-09-03T06:52:05;2.73;;;1.77;;
18455;SDS011;9357;49.900;8.208;2022-09-03T06:53:38;2.27;;;1.93;;
18455;SDS011;9357;49.900;8.208;2022-09-03T06:55:11;2.13;;;2.00;;
18455;SDS011;9357;49.900;8.208;2022-09-03T06:56:45;2.60;;;2.20;;
18455;SDS011;9357;49.900;8.208;2022-09-03T06:58:18;2.17;;;2.03;;
18455;SDS011;9357;49.900;8.208;2022-09-03T06:59:50;2.97;;;2.10;;
18455;SDS011;9357;49.900;8.208;2022-09-03T07:01:25;3.40;;;2.30;;
18455;SDS011;9357;49.900;8.208;2022-09-03T07:03:01;3.73;;;2.37;;
18455;SDS011;9357;49.900;8.208;2022-09-03T07:04:35;3.07;;;2.20;;
18455;SDS011;9357;49.900;8.208;2022-09-03T07:06:09;2.17;;;1.97;;
18455;SDS011;9357;49.900;8.208;2022-09-03T07:07:42;2.37;;;2.00;;
18455;SDS011;9357;49.900;8.208;2022-09-03T07:09:16;4.17;;;2.27;;
18455;SDS011;9357;49.900;8.208;2022-09-03T07:10:49;2.33;;;2.10;;
18455;SDS011;9357;49.900;8.208;2022-09-03T07:12:23;3.10;;;2.70;;
18455;SDS011;9357;49.900;8.208;2022-09-03T07:13:56;4.10;;;2.40;;
18455;SDS011;9357;49.900;8.208;2022-09-03T07:15:29;2.83;;;2.17;;
18455;SDS011;9357;49.900;8.208;2022-09-03T07:17:03;2.40;;;2.20;;
18455;SDS011;9357;49.900;8.208;2022-09-03T07:18:35;2.23;;;2.07;;
18455;SDS011;9357;49.900;8.208;2022-09-03T07:20:09;2.57;;;2.27;;
18455;SDS011;9357;49.900;8.208;2022-09-03T07:21:42;3.73;;;2.20;;
18455;SDS011;9357;49.900;8.208;2022-09-03T07:23:20;4.93;;;2.70;;
18455;SDS011;9357;49.900;8.208;2022-09-03T07:24:53;3.83;;;2.53;;
18455;SDS011;9357;49.900;8.208;2022-09-03T07:26:26;5.30;;;2.47;;
18455;SDS011;9357;49.900;8.208;2022-09-03T07:28:04;2.30;;;2.20;;
18455;SDS011;9357;49.900;8.208;2022-09-03T07:29:36;3.47;;;2.30;;
18455;SDS011;9357;49.900;8.208;2022-09-03T07:31:10;2.67;;;2.40;;
18455;SDS011;9357;49.900;8.208;2022-09-03T07:32:45;3.53;;;2.60;;
18455;SDS011;9357;49.900;8.208;2022-09-03T07:34:18;2.37;;;2.17;;
18455;SDS011;9357;49.900;8.208;2022-09-03T07:35:54;2.70;;;2.50;;
18455;SDS011;9357;49.900;8.208;2022-09-03T07:37:26;2.93;;;2.30;;
18455;SDS011;9357;49.900;8.208;2022-09-03T07:38:59;2.40;;;2.20;;
18455;SDS011;9357;49.900;8.208;2022-09-03T07:40:34;3.17;;;2.63;;
18455;SDS011;9357;49.900;8.208;2022-09-03T07:42:06;2.30;;;2.10;;
18455;SDS011;9357;49.900;8.208;2022-09-03T07:43:43;4.50;;;2.70;;
18455;SDS011;9357;49.900;8.208;2022-09-03T07:45:17;2.57;;;2.37;;
18455;SDS011;9357;49.900;8.208;2022-09-03T07:46:49;3.17;;;2.50;;
18455;SDS011;9357;49.900;8.208;2022-09-03T07:48:23;2.77;;;2.40;;
18455;SDS011;9357;49.900;8.208;2022-09-03T07:49:55;4.10;;;3.03;;
18455;SDS011;9357;49.900;8.208;2022-09-03T07:51:28;2.40;;;2.20;;
18455;SDS011;9357;49.900;8.208;2022-09-03T07:53:02;4.13;;;2.90;;
18455;SDS011;9357;49.900;8.208;2022-09-03T07:54:34;3.10;;;2.80;;
18455;SDS011;9357;49.900;8.208;2022-09-03T07:56:08;3.00;;;2.70;;
18455;SDS011;9357;49.900;8.208;2022-09-03T07:57:41;4.47;;;3.20;;
18455;SDS011;9357;49.900;8.208;2022-09-03T07:59:15;3.00;;;2.80;;
18455;SDS011;9357;49.900;8.208;2022-09-03T08:00:49;3.87;;;3.20;;
18455;SDS011;9357;49.900;8.208;2022-09-03T08:02:22;2.87;;;2.67;;
18455;SDS011;9357;49.900;8.208;2022-09-03T08:03:55;3.43;;;3.07;;
18455;SDS011;9357;49.900;8.208;2022-09-03T08:05:27;4.63;;;3.10;;
18455;SDS011;9357;49.900;8.208;2022-09-03T08:07:00;3.77;;;3.47;;
18455;SDS011;9357;49.900;8.208;2022-09-03T08:08:34;3.77;;;3.47;;
18455;SDS011;9357;49.900;8.208;2022-09-03T08:10:08;3.47;;;3.17;;
18455;SDS011;9357;49.900;8.208;2022-09-03T08:11:41;3.43;;;3.00;;
18455;SDS011;9357;49.900;8.208;2022-09-03T08:13:14;3.80;;;2.90;;
18455;SDS011;9357;49.900;8.208;2022-09-03T08:14:48;2.90;;;2.70;;
18455;SDS011;9357;49.900;8.208;2022-09-03T08:16:21;3.43;;;2.80;;
18455;SDS011;9357;49.900;8.208;2022-09-03T08:17:54;3.40;;;3.10;;
18455;SDS011;9357;49.900;8.208;2022-09-03T08:19:36;3.10;;;2.90;;
18455;SDS011;9357;49.900;8.208;2022-09-03T08:21:10;7.87;;;3.03;;
18455;SDS011;9357;49.900;8.208;2022-09-03T08:22:45;2.97;;;2.77;;
18455;SDS011;9357;49.900;8.208;2022-09-03T08:24:18;4.53;;;2.80;;
18455;SDS011;9357;49.900;8.208;2022-09-03T08:25:57;3.63;;;3.10;;
18455;SDS011;9357;49.900;8.208;2022-09-03T08:27:30;2.87;;;2.70;;
18455;SDS011;9357;49.900;8.208;2022-09-03T08:29:05;2.93;;;2.73;;
18455;SDS011;9357;49.900;8.208;2022-09-03T08:30:39;3.50;;;3.20;;
18455;SDS011;9357;49.900;8.208;2022-09-03T08:32:12;3.03;;;2.70;;
18455;SDS011;9357;49.900;8.208;2022-09-03T08:33:46;3.47;;;2.93;;
18455;SDS011;9357;49.900;8.208;2022-09-03T08:35:20;3.20;;;2.97;;
18455;SDS011;9357;49.900;8.208;2022-09-03T08:36:53;3.60;;;3.33;;
18455;SDS011;9357;49.900;8.208;2022-09-03T08:38:26;3.30;;;3.00;;
18455;SDS011;9357;49.900;8.208;2022-09-03T08:39:59;3.80;;;3.50;;
18455;SDS011;9357;49.900;8.208;2022-09-03T08:41:36;3.60;;;3.30;;
18455;SDS011;9357;49.900;8.208;2022-09-03T08:43:19;3.27;;;3.07;;
18455;SDS011;9357;49.900;8.208;2022-09-03T08:44:52;3.50;;;3.20;;
18455;SDS011;9357;49.900;8.208;2022-09-03T08:46:32;4.27;;;2.63;;
18455;SDS011;9357;49.900;8.208;2022-09-03T08:48:15;3.40;;;3.10;;
18455;SDS011;9357;49.900;8.208;2022-09-03T08:49:57;4.13;;;3.60;;
18455;SDS011;9357;49.900;8.208;2022-09-03T08:51:33;4.40;;;4.00;;
18455;SDS011;9357;49.900;8.208;2022-09-03T08:53:10;4.27;;;3.67;;
18455;SDS011;9357;49.900;8.208;2022-09-03T08:54:49;3.90;;;3.60;;
18455;SDS011;9357;49.900;8.208;2022-09-03T08:56:26;4.20;;;3.80;;
18455;SDS011;9357;49.900;8.208;2022-09-03T08:58:02;3.80;;;3.47;;
18455;SDS011;9357;49.900;8.208;2022-09-03T08:59:37;3.97;;;3.67;;
18455;SDS011;9357;49.900;8.208;2022-09-03T09:01:11;4.03;;;3.73;;
18455;SDS011;9357;49.900;8.208;2022-09-03T09:02:59;4.53;;;4.20;;
18455;SDS011;9357;49.900;8.208;2022-09-03T09:04:43;4.53;;;4.13;;
18455;SDS011;9357;49.900;8.208;2022-09-03T09:06:25;3.67;;;3.37;;
18455;SDS011;9357;49.900;8.208;2022-09-03T09:08:05;6.63;;;3.90;;
18455;SDS011;9357;49.900;8.208;2022-09-03T09:09:49;4.17;;;3.70;;
18455;SDS011;9357;49.900;8.208;2022-09-03T09:11:28;4.00;;;3.70;;
18455;SDS011;9357;49.900;8.208;2022-09-03T09:13:12;3.97;;;3.67;;
18455;SDS011;9357;49.900;8.208;2022-09-03T09:14:57;4.77;;;4.27;;
18455;SDS011;9357;49.900;8.208;2022-09-03T09:16:42;4.70;;;4.13;;
18455;SDS011;9357;49.900;8.208;2022-09-03T09:18:22;3.80;;;3.50;;
18455;SDS011;9357;49.900;8.208;2022-09-03T09:20:02;6.00;;;4.00;;
18455;SDS011;9357;49.900;8.208;2022-09-03T09:21:41;4.53;;;4.23;;
18455;SDS011;9357;49.900;8.208;2022-09-03T09:23:18;4.63;;;4.23;;
18455;SDS011;9357;49.900;8.208;2022-09-03T09:24:59;4.60;;;4.20;;
18455;SDS011;9357;49.900;8.208;2022-09-03T09:26:35;4.87;;;4.37;;
18455;SDS011;9357;49.900;8.208;2022-09-03T09:28:12;4.80;;;4.40;;
18455;SDS011;9357;49.900;8.208;2022-09-03T09:29:49;5.23;;;4.83;;
18455;SDS011;9357;49.900;8.208;2022-09-03T09:31:23;4.83;;;4.53;;
18455;SDS011;9357;49.900;8.208;2022-09-03T09:32:57;5.03;;;4.53;;
18455;SDS011;9357;49.900;8.208;2022-09-03T09:34:34;4.50;;;4.10;;
18455;SDS011;9357;49.900;8.208;2022-09-03T09:36:08;5.43;;;4.30;;
18455;SDS011;9357;49.900;8.208;2022-09-03T09:37:46;5.00;;;4.60;;
18455;SDS011;9357;49.900;8.208;2022-09-03T09:39:20;4.63;;;4.33;;
18455;SDS011;9357;49.900;8.208;2022-09-03T09:40:53;4.63;;;4.00;;
18455;SDS011;9357;49.900;8.208;2022-09-03T09:42:27;5.87;;;4.47;;
18455;SDS011;9357;49.900;8.208;2022-09-03T09:44:02;5.47;;;4.97;;
18455;SDS011;9357;49.900;8.208;2022-09-03T09:45:36;8.10;;;5.23;;